Risingsun, Ohio
Current Conditions -  °F | °C
As of 9:53 AM on Saturday 01 Nov 2014 (Local Time) from KTDZ Reporting Station
Clear Clear  
Wind Chill: 29°   Ceiling: Unl
Heat Index: 37°   Visibility: 10mi
Dew Point: 25°   Wind: 13mph
Humidity: 62%   Direction: 10°N
Pressure: 30.28"   Gusts: 21mph
Location:  41.27°N, 83.42°W
Report Text: KTDZ 011353Z AUTO 01011G18KT 10SM CLR 03/M04 A3028 RMK AO2 SLP260 T00281039 TSNO
Loading
Personal Weather Stations






























Interactive Weather Map
Tropical Storm Tracking
New forecast layout! Learn more

10-Day Weather Forecast

Advertisements
Track Severe Weather on mobile